Time;durP1;ratioP1;P1;durP2;ratioP2;P2;SDS_P1;SDS_P2;PMS_P1;PMS_P2;Temp;Humidity;BMP_temperature;BMP_pressure;BME280_temperature;BME280_humidity;BME280_pressure;Samples;Min_cycle;Max_cycle;Signal;HPM_P1;HPM_P2
2021/01/04 00:00:05;;;;;;;15.23;8.80;;;;;;;-0.03;100.00;101029.03;4999251;28;20074;-57
2021/01/04 00:03:05;;;;;;;13.10;8.93;;;;;;;-0.06;100.00;101023.88;5002159;28;20054;-58
2021/01/04 00:06:11;;;;;;;12.23;7.68;;;;;;;-0.04;100.00;101027.31;5018247;23;20115;-54
2021/01/04 00:08:59;;;;;;;13.15;7.93;;;;;;;-0.01;100.00;101024.69;4990198;28;20072;-53
2021/01/04 00:11:49;;;;;;;13.30;7.97;;;;;;;-0.01;100.00;101035.03;4982677;28;20113;-53
2021/01/04 00:14:24;;;;;;;12.13;7.85;;;;;;;-0.03;100.00;101021.28;4995114;28;20046;-52
2021/01/04 00:17:09;;;;;;;12.40;7.97;;;;;;;-0.02;100.00;101032.47;4996134;28;20124;-54
2021/01/04 00:19:51;;;;;;;13.50;8.40;;;;;;;0.07;100.00;101027.22;5002575;28;20073;-53
2021/01/04 00:22:34;;;;;;;10.18;7.80;;;;;;;0.04;100.00;101024.66;4993745;28;20117;-52
2021/01/04 00:25:03;;;;;;;11.32;7.38;;;;;;;0.06;100.00;101032.41;5004955;28;20048;-54
2021/01/04 00:27:53;;;;;;;14.75;8.45;;;;;;;-0.05;100.00;101023.00;5004243;28;20041;-53
2021/01/04 00:30:24;;;;;;;12.07;7.90;;;;;;;-0.03;100.00;101028.19;4981576;28;20054;-52
2021/01/04 00:32:55;;;;;;;11.23;7.55;;;;;;;-0.02;100.00;101032.47;4998565;28;20140;-50
2021/01/04 00:35:25;;;;;;;12.05;8.18;;;;;;;-0.04;100.00;101024.72;4979221;28;20487;-52
2021/01/04 00:38:29;;;;;;;12.02;7.85;;;;;;;0.10;100.00;101028.94;4998800;28;20138;-60
2021/01/04 00:41:20;;;;;;;13.88;8.38;;;;;;;-0.03;100.00;101023.84;4984479;28;20454;-54
2021/01/04 00:43:50;;;;;;;13.07;8.38;;;;;;;-0.03;100.00;101023.84;4999332;28;20507;-51
2021/01/04 00:46:21;;;;;;;12.60;8.35;;;;;;;-0.01;100.00;101026.41;4983020;28;20112;-54
2021/01/04 00:49:09;;;;;;;10.30;7.40;;;;;;;-0.03;100.00;101033.34;4995588;28;20142;-54
2021/01/04 00:51:41;;;;;;;13.45;7.93;;;;;;;0.00;100.00;101028.16;4990135;28;20062;-61
2021/01/04 00:54:38;;;;;;;11.80;7.78;;;;;;;0.01;100.00;101022.09;4990004;28;20181;-57
2021/01/04 00:57:37;;;;;;;12.57;8.18;;;;;;;-0.03;100.00;101028.19;5002463;28;20054;-54
2021/01/04 01:00:13;;;;;;;12.18;7.97;;;;;;;-0.08;100.00;101029.97;4988879;28;20049;-51
2021/01/04 01:03:04;;;;;;;12.68;7.20;;;;;;;-0.10;100.00;101029.09;4989141;28;20073;-53
2021/01/04 01:05:49;;;;;;;15.90;8.15;;;;;;;-0.06;100.00;101031.63;4987133;28;20050;-51
2021/01/04 01:08:18;;;;;;;12.85;7.60;;;;;;;-0.05;100.00;101028.16;4985359;28;20053;-55
2021/01/04 01:10:53;;;;;;;12.90;8.43;;;;;;;-0.02;100.00;101035.06;5007152;28;20144;-54
2021/01/04 01:13:20;;;;;;;;;;;;;;;-0.10;100.00;101029.09;4990493;28;20050;-55
2021/01/04 01:16:04;;;;;;;14.45;8.95;;;;;;;-0.13;100.00;101031.72;5003007;28;19921;-57
2021/01/04 01:18:38;;;;;;;12.05;8.02;;;;;;;-0.09;100.00;101023.03;4999192;28;20100;-52
2021/01/04 01:21:08;;;;;;;11.95;7.82;;;;;;;-0.06;100.00;101029.06;5000577;28;20152;-51
2021/01/04 01:23:35;;;;;;;13.55;8.48;;;;;;;-0.05;100.00;101027.31;4997953;28;20045;-55
2021/01/04 01:26:13;;;;;;;10.82;7.65;;;;;;;-0.05;100.00;101028.16;4996579;28;20622;-55
2021/01/04 01:29:03;;;;;;;13.10;8.30;;;;;;;-0.03;100.00;101033.34;4987901;28;20535;-55
2021/01/04 01:31:54;;;;;;;13.38;8.20;;;;;;;-0.05;100.00;101030.75;4978590;28;20046;-52
2021/01/04 01:34:53;;;;;;;14.15;7.63;;;;;;;-0.02;100.00;101033.34;4987840;28;20046;-55
2021/01/04 01:37:34;;;;;;;11.18;7.47;;;;;;;-0.03;100.00;101028.19;4984458;28;20353;-55
2021/01/04 01:40:26;;;;;;;12.27;8.15;;;;;;;-0.05;100.00;101023.00;4998040;28;20447;-53
2021/01/04 01:43:16;;;;;;;14.82;8.68;;;;;;;0.09;100.00;101022.00;4987884;28;20446;-55
2021/01/04 01:46:02;;;;;;;10.98;6.95;;;;;;;-0.03;100.00;101028.19;4999387;28;20058;-50
2021/01/04 01:48:44;;;;;;;9.20;6.68;;;;;;;-0.01;100.00;101037.63;4983081;28;20061;-53
2021/01/04 01:51:40;;;;;;;13.27;7.10;;;;;;;-0.01;100.00;101035.03;4988753;28;20045;-51
2021/01/04 01:54:36;;;;;;;7.53;5.57;;;;;;;0.04;100.00;101034.16;4995731;28;20081;-54
2021/01/04 01:57:24;;;;;;;10.10;6.22;;;;;;;0.07;100.00;101027.22;4971941;28;20153;-58
2021/01/04 02:00:10;;;;;;;9.13;6.18;;;;;;;0.06;100.00;101032.41;4986125;28;20057;-55
2021/01/04 02:03:05;;;;;;;10.10;6.10;;;;;;;0.03;100.00;101035.88;4981457;28;20129;-53
2021/01/04 02:05:59;;;;;;;9.63;6.18;;;;;;;0.09;100.00;101030.66;4986291;28;20056;-56
2021/01/04 02:08:29;;;;;;;11.77;5.72;;;;;;;-0.03;100.00;101034.22;4999251;28;20050;-53
2021/01/04 02:11:03;;;;;;;7.70;5.55;;;;;;;0.07;100.00;101032.38;4990717;28;20053;-53
2021/01/04 02:13:54;;;;;;;11.90;6.03;;;;;;;0.03;100.00;101037.63;4996700;28;20045;-52
2021/01/04 02:16:33;;;;;;;8.35;5.55;;;;;;;0.04;100.00;101041.91;4995880;28;20050;-53
2021/01/04 02:19:14;;;;;;;9.05;6.43;;;;;;;-0.06;100.00;101033.38;4981416;28;20058;-56
2021/01/04 02:22:11;;;;;;;10.18;5.93;;;;;;;-0.05;100.00;101040.25;4996079;28;20061;-51
2021/01/04 02:24:38;;;;;;;9.77;5.72;;;;;;;0.09;100.00;101035.84;4986942;28;20042;-56
2021/01/04 02:27:09;;;;;;;7.80;5.38;;;;;;;-0.01;100.00;101037.63;5001234;28;20503;-55
2021/01/04 02:29:36;;;;;;;9.65;5.88;;;;;;;0.09;100.00;101034.97;4998306;28;20065;-53
2021/01/04 02:32:05;;;;;;;9.70;5.68;;;;;;;0.11;100.00;101041.84;4997695;28;20069;-56
2021/01/04 02:34:35;;;;;;;8.75;5.25;;;;;;;0.02;100.00;101041.06;4994647;28;20049;-52
2021/01/04 02:37:03;;;;;;;7.38;5.13;;;;;;;0.03;100.00;101038.47;4993403;28;20042;-55
2021/01/04 02:39:37;;;;;;;7.40;5.25;;;;;;;0.05;100.00;101034.16;4974499;28;20042;-52
2021/01/04 02:42:11;;;;;;;7.15;4.85;;;;;;;0.00;100.00;101033.34;5004065;28;20161;-52
2021/01/04 02:44:39;;;;;;;8.60;6.10;;;;;;;0.05;100.00;101028.97;5000547;28;20050;-53
2021/01/04 02:47:24;;;;;;;7.65;5.30;;;;;;;0.06;100.00;101028.09;4978033;28;20130;-51
2021/01/04 02:50:10;;;;;;;8.10;5.20;;;;;;;0.10;100.00;101031.53;5001591;28;20056;-52
2021/01/04 02:53:01;;;;;;;9.67;5.80;;;;;;;0.12;100.00;101029.75;4992546;28;20481;-53
2021/01/04 02:55:56;;;;;;;8.10;5.10;;;;;;;0.06;100.00;101033.28;4981290;28;20523;-56
2021/01/04 02:58:31;;;;;;;8.35;5.47;;;;;;;0.01;100.00;101039.38;4993828;28;20054;-57
2021/01/04 03:01:05;;;;;;;7.97;5.35;;;;;;;0.10;100.00;101037.56;4968996;28;20053;-52
2021/01/04 03:03:33;;;;;;;8.85;5.22;;;;;;;0.04;99.97;101041.91;4977414;28;20154;-53
2021/01/04 03:06:01;;;;;;;8.43;5.80;;;;;;;-0.02;100.00;101040.25;4997751;28;20050;-52
2021/01/04 03:08:28;;;;;;;10.05;5.40;;;;;;;-0.01;100.00;101034.19;4983973;28;20065;-51
2021/01/04 03:10:55;;;;;;;8.77;5.38;;;;;;;0.05;100.00;101041.91;5000677;28;20084;-53
2021/01/04 03:13:45;;;;;;;8.77;5.88;;;;;;;0.04;100.00;101049.69;4993790;28;20050;-52
2021/01/04 03:16:23;;;;;;;8.43;4.93;;;;;;;0.02;100.00;101041.94;4979330;28;20080;-54
2021/01/04 03:18:55;;;;;;;9.38;6.53;;;;;;;0.06;100.00;101040.19;4994287;28;20423;-53
2021/01/04 03:21:26;;;;;;;7.35;5.47;;;;;;;0.09;99.76;101045.31;4976930;28;20120;-56
2021/01/04 03:23:52;;;;;;;12.18;6.13;;;;;;;0.05;100.00;101041.91;4983842;28;20066;-56
2021/01/04 03:26:23;;;;;;;7.45;5.30;;;;;;;0.01;100.00;101042.81;4980937;28;20074;-54
2021/01/04 03:28:50;;;;;;;10.00;5.47;;;;;;;-0.09;100.00;101041.16;4991790;28;20093;-54
2021/01/04 03:31:16;;;;;;;8.55;5.50;;;;;;;0.11;100.00;101047.03;5001140;28;20058;-50
2021/01/04 03:33:43;;;;;;;11.18;5.63;;;;;;;0.10;99.83;101054.81;4992714;28;20061;-54
2021/01/04 03:36:10;;;;;;;12.00;6.45;;;;;;;-0.02;100.00;101050.59;4998129;28;20108;-53
2021/01/04 03:38:36;;;;;;;9.70;5.65;;;;;;;0.03;100.00;101047.97;4994969;28;20054;-55
2021/01/04 03:41:04;;;;;;;8.60;5.75;;;;;;;0.09;99.78;101053.06;5000882;28;20086;-53
2021/01/04 03:43:30;;;;;;;8.70;5.57;;;;;;;-0.04;100.00;101048.03;5002667;28;20077;-54
2021/01/04 03:45:57;;;;;;;9.00;5.75;;;;;;;0.02;100.00;101044.53;4993291;28;20058;-51
2021/01/04 03:48:24;;;;;;;9.73;5.50;;;;;;;0.02;100.00;101046.25;4996935;28;20527;-54
2021/01/04 03:50:51;;;;;;;9.70;5.93;;;;;;;0.01;100.00;101045.41;5004236;28;20054;-53
2021/01/04 03:53:19;;;;;;;9.73;6.40;;;;;;;0.02;100.00;101047.09;5000176;28;20065;-55
2021/01/04 03:55:46;;;;;;;9.02;5.85;;;;;;;0.06;99.93;101050.53;5000681;28;20077;-53
2021/01/04 03:58:13;;;;;;;9.68;5.78;;;;;;;0.10;100.00;101034.09;4998477;28;20486;-51
2021/01/04 04:00:39;;;;;;;9.10;4.95;;;;;;;0.10;100.00;101037.56;5001485;28;20050;-55
2021/01/04 04:03:06;;;;;;;8.38;5.13;;;;;;;0.04;99.98;101040.19;4985374;28;20065;-53
2021/01/04 04:05:33;;;;;;;10.18;6.28;;;;;;;0.10;100.00;101034.97;4997865;28;20108;-50
2021/01/04 04:08:01;;;;;;;8.25;5.32;;;;;;;0.03;100.00;101028.13;4991077;28;20058;-53
2021/01/04 04:10:29;;;;;;;8.20;5.38;;;;;;;0.02;100.00;101029.00;5002022;28;20038;-54
2021/01/04 04:12:56;;;;;;;8.13;5.95;;;;;;;-0.07;100.00;101026.50;4998445;28;20408;-52
2021/01/04 04:15:23;;;;;;;9.77;5.40;;;;;;;0.03;100.00;101025.53;5004208;28;20415;-57
2021/01/04 04:17:50;;;;;;;7.07;5.10;;;;;;;-0.09;100.00;101029.09;5007185;28;20050;-56
2021/01/04 04:20:20;;;;;;;7.32;5.40;;;;;;;-0.04;100.00;101027.31;5008510;28;20590;-57
2021/01/04 04:22:48;;;;;;;9.05;5.90;;;;;;;-0.05;100.00;101025.59;4994894;28;20046;-54
2021/01/04 04:25:17;;;;;;;7.28;5.28;;;;;;;-0.02;100.00;101029.88;5001685;28;20061;-51
2021/01/04 04:27:44;;;;;;;7.28;5.53;;;;;;;-0.06;100.00;101016.13;4974185;28;20054;-51
2021/01/04 04:30:15;;;;;;;7.85;5.57;;;;;;;-0.05;100.00;101020.41;5004506;28;20081;-57
2021/01/04 04:32:41;;;;;;;7.35;5.05;;;;;;;0.03;100.00;101028.13;4999124;28;20046;-57
2021/01/04 04:35:10;;;;;;;9.82;6.15;;;;;;;-0.01;100.00;101029.00;4998116;28;20081;-50
2021/01/04 04:37:40;;;;;;;7.97;5.43;;;;;;;0.03;99.88;101020.34;4999466;28;20433;-52
2021/01/04 04:40:09;;;;;;;7.40;4.60;;;;;;;-0.04;100.00;101029.91;5002965;28;20057;-56
2021/01/04 04:42:38;;;;;;;8.35;5.55;;;;;;;-0.04;100.00;101024.72;4984795;28;20085;-52
2021/01/04 04:45:11;;;;;;;7.90;5.18;;;;;;;0.01;100.00;101034.19;5002885;28;20041;-53
2021/01/04 04:47:56;;;;;;;7.75;4.65;;;;;;;-0.03;100.00;101034.22;4979936;28;20460;-54
2021/01/04 04:50:44;;;;;;;9.13;5.35;;;;;;;-0.12;100.00;101036.88;4992337;28;20065;-50
2021/01/04 04:53:35;;;;;;;9.30;5.15;;;;;;;-0.07;100.00;101036.84;4996477;28;20153;-56
2021/01/04 04:56:26;;;;;;;6.60;4.50;;;;;;;-0.02;100.00;101043.69;4996732;28;20054;-53
2021/01/04 04:59:02;;;;;;;7.60;5.15;;;;;;;0.05;100.00;101039.31;4981654;28;20078;-50
2021/01/04 05:01:47;;;;;;;7.22;4.70;;;;;;;0.04;100.00;101047.09;4974326;28;20060;-55
2021/01/04 05:04:32;;;;;;;6.65;4.63;;;;;;;0.01;100.00;101045.41;4983509;28;20050;-58
2021/01/04 05:07:02;;;;;;;7.05;4.78;;;;;;;-0.06;100.00;101043.72;4992804;28;20046;-55
2021/01/04 05:09:53;;;;;;;6.68;4.50;;;;;;;-0.09;100.00;101042.03;4986059;28;20065;-54
2021/01/04 05:13:07;;;;;;;7.32;4.22;;;;;;;-0.10;100.00;101037.72;5001828;28;20059;-55
2021/01/04 05:16:04;;;;;;;8.45;5.10;;;;;;;-0.14;100.00;101040.34;4994520;28;20042;-55
2021/01/04 05:18:59;;;;;;;8.20;4.80;;;;;;;-0.13;100.00;101040.34;4987179;28;20483;-52
2021/01/04 05:21:56;;;;;;;11.48;5.13;;;;;;;-0.20;100.00;101049.00;4988167;28;20052;-56
2021/01/04 05:24:36;;;;;;;7.90;4.63;;;;;;;-0.15;100.00;101048.97;4984653;28;20057;-54
2021/01/04 05:27:23;;;;;;;9.20;5.65;;;;;;;-0.11;100.00;101045.50;4979647;28;20074;-50
2021/01/04 05:30:07;;;;;;;8.15;4.90;;;;;;;-0.17;100.00;101040.38;4992473;28;20520;-55
2021/01/04 05:32:36;;;;;;;11.25;6.10;;;;;;;-0.13;100.00;101045.53;4978717;28;20613;-54
2021/01/04 05:35:08;;;;;;;6.88;4.88;;;;;;;-0.09;100.00;101044.63;4997348;28;20053;-53
2021/01/04 05:38:00;;;;;;;9.43;5.63;;;;;;;-0.17;100.00;101046.41;4986833;28;20041;-54
2021/01/04 05:40:45;;;;;;;7.85;5.18;;;;;;;-0.10;100.00;101044.63;5008056;28;20045;-53
2021/01/04 05:43:16;;;;;;;9.88;5.28;;;;;;;-0.13;100.00;101055.00;4998121;28;20057;-51
2021/01/04 05:46:03;;;;;;;8.82;5.20;;;;;;;-0.12;100.00;101055.00;4991791;28;20049;-53
2021/01/04 05:48:38;;;;;;;8.32;5.45;;;;;;;-0.08;100.00;101056.69;4987762;28;20315;-52
2021/01/04 05:51:18;;;;;;;7.00;5.15;;;;;;;-0.05;100.00;101058.38;4980298;28;20062;-53
2021/01/04 05:53:45;;;;;;;9.50;5.50;;;;;;;-0.17;100.00;101051.59;4978986;28;20328;-54
2021/01/04 05:56:19;;;;;;;11.00;6.25;;;;;;;-0.11;100.00;101054.13;4996615;28;20068;-56
2021/01/04 05:58:46;;;;;;;7.80;5.47;;;;;;;-0.17;100.00;101051.59;4999473;28;20050;-51
2021/01/04 06:01:22;;;;;;;9.45;5.85;;;;;;;-0.11;100.00;101054.13;4993421;28;20060;-55
2021/01/04 06:04:13;;;;;;;7.90;5.22;;;;;;;-0.10;100.00;101047.22;4986329;28;20070;-53
2021/01/04 06:06:59;;;;;;;8.13;5.68;;;;;;;-0.10;100.00;101053.25;5024961;23;20269;-57
2021/01/04 06:09:28;;;;;;;11.48;5.72;;;;;;;-0.11;100.00;101051.53;5017403;28;20064;-57
2021/01/04 06:11:59;;;;;;;11.55;5.63;;;;;;;-0.07;100.00;101053.22;5001737;28;20072;-57
2021/01/04 06:14:31;;;;;;;9.10;5.93;;;;;;;-0.16;100.00;101049.84;5001037;28;20133;-59
2021/01/04 06:17:05;;;;;;;7.93;5.57;;;;;;;-0.03;100.00;101049.75;5015703;28;20049;-59
2021/01/04 06:19:42;;;;;;;7.88;5.20;;;;;;;-0.16;100.00;101050.72;5008368;28;20053;-58
2021/01/04 06:22:13;;;;;;;9.02;6.72;;;;;;;-0.03;100.00;101054.91;5027167;28;20058;-55
2021/01/04 06:24:41;;;;;;;8.45;5.50;;;;;;;-0.16;100.00;101049.84;5005544;28;20100;-53
2021/01/04 06:27:29;;;;;;;8.00;5.35;;;;;;;-0.10;100.00;101050.66;5017932;28;20655;-54
2021/01/04 06:29:56;;;;;;;8.32;6.05;;;;;;;-0.09;100.00;101057.56;5014415;28;20103;-56
2021/01/04 06:32:28;;;;;;;10.65;6.10;;;;;;;-0.09;100.00;101054.09;5001280;28;20120;-56
2021/01/04 06:34:57;;;;;;;10.02;6.07;;;;;;;-0.16;100.00;101047.28;5025994;28;20060;-56
2021/01/04 06:37:27;;;;;;;11.82;6.57;;;;;;;-0.23;100.00;101053.34;5023264;28;20481;-55
2021/01/04 06:40:06;;;;;;;9.57;6.47;;;;;;;-0.21;100.00;101055.06;5006049;28;20061;-55
2021/01/04 06:42:41;;;;;;;9.00;6.50;;;;;;;-0.17;100.00;101058.50;5019366;28;20131;-58
2021/01/04 06:45:31;;;;;;;13.57;6.95;;;;;;;-0.16;100.00;101050.72;5020610;28;20096;-53
2021/01/04 06:48:06;;;;;;;10.60;6.68;;;;;;;-0.30;100.00;101056.00;5019122;28;20054;-57
2021/01/04 06:50:51;;;;;;;9.90;6.05;;;;;;;-0.32;100.00;101054.28;5007777;28;20062;-54
2021/01/04 06:53:40;;;;;;;10.88;7.45;;;;;;;-0.28;100.00;101055.97;5022768;28;20136;-56
2021/01/04 06:56:18;;;;;;;10.02;6.88;;;;;;;-0.24;100.00;101064.56;4999898;28;20332;-57
2021/01/04 06:59:10;;;;;;;13.02;8.35;;;;;;;-0.24;100.00;101059.41;5014433;28;20063;-57
2021/01/04 07:01:54;;;;;;;15.75;7.63;;;;;;;-0.21;100.00;101056.81;5024558;28;20511;-58
2021/01/04 07:04:42;;;;;;;10.63;6.75;;;;;;;-0.32;100.00;101060.31;5028181;28;20073;-54
2021/01/04 07:07:21;;;;;;;10.85;6.93;;;;;;;-0.14;100.00;101066.22;5019030;28;20580;-57
2021/01/04 07:09:58;;;;;;;12.05;7.55;;;;;;;-0.06;100.00;101069.59;4999423;28;20057;-58
2021/01/04 07:13:12;;;;;;;10.63;7.00;;;;;;;-0.23;100.00;101072.31;4996355;28;20058;-55
2021/01/04 07:15:59;;;;;;;10.70;6.82;;;;;;;-0.06;100.00;101074.78;4914765;29;20487;-56
2021/01/04 07:19:14;;;;;;;14.45;7.85;;;;;;;-0.02;100.00;101081.66;4989309;28;20088;-59
2021/01/04 07:21:52;;;;;;;9.93;7.28;;;;;;;-0.15;100.00;101078.28;5003550;28;20041;-57
2021/01/04 07:24:29;;;;;;;16.25;7.75;;;;;;;0.00;100.00;101079.94;5012563;28;20057;-55
2021/01/04 07:27:15;;;;;;;11.70;6.93;;;;;;;-0.02;100.00;101077.34;4996851;28;20053;-56
2021/01/04 07:30:04;;;;;;;11.60;7.57;;;;;;;-0.14;100.00;101080.00;5011944;28;20521;-54
2021/01/04 07:32:44;;;;;;;9.95;6.90;;;;;;;-0.15;100.00;101088.66;5012501;28;20054;-58
2021/01/04 07:35:26;;;;;;;11.05;7.18;;;;;;;-0.04;100.00;101083.41;5014360;28;20049;-58
2021/01/04 07:38:05;;;;;;;10.35;7.43;;;;;;;-0.04;100.00;101086.84;4996559;28;20049;-55
2021/01/04 07:40:49;;;;;;;12.60;7.82;;;;;;;-0.05;100.00;101084.25;5023235;28;20083;-56
2021/01/04 07:43:28;;;;;;;9.90;7.32;;;;;;;0.07;100.00;101091.06;5013146;28;20085;-60
2021/01/04 07:46:28;;;;;;;10.32;7.22;;;;;;;-0.02;100.00;101092.84;5017675;28;20100;-60
2021/01/04 07:49:34;;;;;;;10.43;6.28;;;;;;;0.08;100.00;101103.13;5020212;28;20063;-57
2021/01/04 07:52:42;;;;;;;10.52;6.25;;;;;;;0.26;100.00;101100.38;5011101;28;20900;-59
2021/01/04 07:55:48;;;;;;;9.68;7.10;;;;;;;0.28;100.00;101100.41;5014151;28;20083;-57
2021/01/04 07:58:56;;;;;;;8.70;6.13;;;;;;;0.22;100.00;101104.72;4995438;28;21167;-59
2021/01/04 08:01:52;;;;;;;13.40;6.70;;;;;;;0.29;99.61;101102.09;5024271;28;20053;-55
2021/01/04 08:04:48;;;;;;;8.93;6.70;;;;;;;0.21;99.67;101105.59;5001909;28;20076;-60
2021/01/04 08:07:42;;;;;;;10.40;6.47;;;;;;;0.26;100.00;101102.97;4991476;28;20703;-53
2021/01/04 08:10:17;;;;;;;11.80;6.20;;;;;;;0.12;100.00;101095.34;5012846;28;20054;-56
2021/01/04 08:13:39;;;;;;;9.27;6.65;;;;;;;0.27;100.00;101104.72;5008564;28;20136;-58
2021/01/04 08:16:08;;;;;;;11.27;6.72;;;;;;;0.30;100.00;101104.66;5010069;28;20050;-59
2021/01/04 08:18:36;;;;;;;10.57;7.25;;;;;;;0.27;100.00;101104.72;4994168;28;20050;-57
2021/01/04 08:21:29;;;;;;;9.68;7.22;;;;;;;0.31;99.76;101108.97;5013254;28;20053;-59
2021/01/04 08:24:11;;;;;;;10.73;7.50;;;;;;;0.28;99.64;101109.03;4994683;28;20057;-56
2021/01/04 08:26:57;;;;;;;10.38;6.55;;;;;;;0.28;99.56;101110.75;4981764;28;20061;-56
2021/01/04 08:29:50;;;;;;;9.65;6.85;;;;;;;0.31;98.83;101111.56;5013896;28;20063;-57
2021/01/04 08:32:45;;;;;;;14.68;7.35;;;;;;;0.22;98.62;101115.09;4993710;28;20054;-60
2021/01/04 08:35:29;;;;;;;11.00;6.40;;;;;;;0.29;99.14;101121.09;5012855;28;20143;-53
2021/01/04 08:38:25;;;;;;;13.65;8.65;;;;;;;0.28;99.41;101124.56;5017507;28;20061;-59
2021/01/04 08:41:09;;;;;;;12.95;8.13;;;;;;;0.31;98.63;101123.66;5016987;28;21173;-61
2021/01/04 08:43:41;;;;;;;14.98;9.20;;;;;;;0.27;98.68;101119.38;5011627;28;20046;-56
2021/01/04 08:46:32;;;;;;;15.38;8.80;;;;;;;0.35;98.73;101127.94;5013377;28;20075;-58
2021/01/04 08:49:27;;;;;;;11.05;7.80;;;;;;;0.29;98.42;101128.84;4988303;28;20875;-56
2021/01/04 08:51:55;;;;;;;12.75;8.43;;;;;;;0.39;98.31;101124.44;5010934;28;21243;-59
2021/01/04 08:54:25;;;;;;;11.48;6.72;;;;;;;0.32;98.36;101122.81;5015802;28;20068;-55
2021/01/04 08:57:05;;;;;;;11.73;7.57;;;;;;;0.25;98.42;101122.84;5015813;28;20046;-55
2021/01/04 08:59:33;;;;;;;12.48;8.00;;;;;;;0.32;98.55;101128.00;5013960;28;20045;-57
2021/01/04 09:02:07;;;;;;;10.60;6.82;;;;;;;0.31;98.46;101127.09;5009762;28;20065;-56
2021/01/04 09:04:37;;;;;;;11.38;7.95;;;;;;;0.37;99.15;101127.06;4998583;28;20057;-58
2021/01/04 09:07:13;;;;;;;15.05;8.18;;;;;;;0.45;98.22;101130.44;5015235;28;20161;-57
2021/01/04 09:10:00;;;;;;;13.82;8.30;;;;;;;0.41;97.82;101128.75;4999218;28;20145;-56
2021/01/04 09:12:40;;;;;;;21.77;8.93;;;;;;;0.31;98.17;101134.00;4993776;28;20072;-60
2021/01/04 09:15:12;;;;;;;13.77;7.85;;;;;;;0.25;97.94;101143.56;5001496;28;20068;-56
2021/01/04 09:18:10;;;;;;;14.88;8.95;;;;;;;0.30;98.69;101142.66;5015869;28;20477;-59
2021/01/04 09:20:47;;;;;;;12.75;8.63;;;;;;;0.39;98.39;101134.81;5013902;28;20060;-57
2021/01/04 09:23:31;;;;;;;15.73;8.10;;;;;;;0.40;98.27;101142.56;4994781;28;20057;-60
2021/01/04 09:26:08;;;;;;;15.48;8.70;;;;;;;0.42;97.87;101145.16;5018020;28;20141;-61
2021/01/04 09:28:40;;;;;;;16.88;9.10;;;;;;;0.39;97.93;101138.25;4999747;28;20981;-58
2021/01/04 09:31:08;;;;;;;13.50;8.43;;;;;;;0.46;98.07;101139.94;5020735;28;20406;-60
2021/01/04 09:33:49;;;;;;;15.77;9.23;;;;;;;0.48;98.12;101142.50;4995401;28;20050;-56
2021/01/04 09:36:19;;;;;;;15.98;9.23;;;;;;;0.54;97.92;101145.03;5019778;28;20060;-58
2021/01/04 09:38:48;;;;;;;15.52;8.95;;;;;;;0.59;97.79;101148.44;5016705;28;20050;-60
2021/01/04 09:41:15;;;;;;;20.67;10.38;;;;;;;0.48;98.08;101151.13;5017629;28;20135;-56
2021/01/04 09:43:42;;;;;;;17.10;9.90;;;;;;;0.45;97.52;101153.75;5010303;28;20064;-54
2021/01/04 09:46:14;;;;;;;15.90;10.00;;;;;;;0.58;97.38;101146.72;4996001;28;20083;-58
2021/01/04 09:48:54;;;;;;;18.58;9.52;;;;;;;0.50;97.50;101146.81;4996864;28;20054;-56
2021/01/04 09:51:35;;;;;;;21.30;9.88;;;;;;;0.51;97.65;101142.47;4998021;28;20061;-56
2021/01/04 09:54:04;;;;;;;17.63;8.32;;;;;;;0.43;97.25;101142.53;4997234;28;20140;-58
2021/01/04 09:56:35;;;;;;;19.55;10.05;;;;;;;0.47;97.71;101144.22;5001103;28;20576;-55
2021/01/04 09:59:23;;;;;;;17.83;9.25;;;;;;;0.45;98.06;101135.63;5017845;28;20041;-59
2021/01/04 10:01:59;;;;;;;17.02;9.20;;;;;;;0.36;98.11;101145.19;5014206;28;20057;-54
2021/01/04 10:04:32;;;;;;;19.58;10.23;;;;;;;0.30;98.17;101145.25;5017521;28;20594;-58
2021/01/04 10:07:03;;;;;;;17.50;9.98;;;;;;;0.47;98.43;101143.38;5018372;28;20053;-57
2021/01/04 10:09:34;;;;;;;20.00;10.40;;;;;;;0.48;98.34;101134.72;5001797;28;20052;-57
2021/01/04 10:12:03;;;;;;;19.88;9.77;;;;;;;0.34;98.27;101137.44;4996468;28;20071;-58
2021/01/04 10:14:30;;;;;;;18.52;10.20;;;;;;;0.40;98.35;101134.78;5016035;28;20279;-58
2021/01/04 10:16:58;;;;;;;21.13;11.57;;;;;;;0.44;98.04;101139.06;5008197;28;20054;-59
2021/01/04 10:19:38;;;;;;;19.10;10.70;;;;;;;0.28;99.11;101134.91;5015377;28;20719;-58
2021/01/04 10:22:15;;;;;;;22.30;11.18;;;;;;;0.35;98.97;101133.97;5011320;28;20111;-60
2021/01/04 10:25:05;;;;;;;21.95;12.20;;;;;;;0.49;98.37;101126.94;4998878;28;20064;-53
2021/01/04 10:27:32;;;;;;;18.65;10.38;;;;;;;0.50;98.10;101136.44;5013143;28;20077;-57
2021/01/04 10:30:21;;;;;;;19.83;11.00;;;;;;;0.47;98.00;101131.28;5018930;28;20049;-56
2021/01/04 10:32:48;;;;;;;23.13;10.70;;;;;;;0.30;98.86;101130.56;5018687;28;20121;-59
2021/01/04 10:35:20;;;;;;;23.38;11.38;;;;;;;0.32;98.89;101130.56;5019376;28;20057;-57
2021/01/04 10:38:09;;;;;;;20.27;11.38;;;;;;;0.21;98.87;101134.09;5015464;28;20046;-54
2021/01/04 10:40:47;;;;;;;21.23;11.18;;;;;;;0.28;99.83;101121.13;5000175;28;20541;-59
2021/01/04 10:43:20;;;;;;;22.63;11.68;;;;;;;0.36;98.79;101125.34;5007668;28;20707;-58
2021/01/04 10:46:18;;;;;;;25.08;12.18;;;;;;;0.36;99.02;101119.28;5014370;28;20088;-61
2021/01/04 10:48:57;;;;;;;21.23;12.35;;;;;;;0.18;99.87;101120.31;5018302;28;20171;-59
2021/01/04 10:51:24;;;;;;;23.73;11.35;;;;;;;0.25;99.32;101120.25;5000999;28;20053;-59
2021/01/04 10:53:51;;;;;;;28.73;13.02;;;;;;;0.19;99.95;101122.91;5001956;28;20064;-57
2021/01/04 10:56:18;;;;;;;24.80;11.60;;;;;;;0.29;99.58;101115.06;5001517;28;20053;-57
2021/01/04 10:59:08;;;;;;;26.40;12.05;;;;;;;0.33;99.83;101109.84;5020991;28;20057;-58
2021/01/04 11:01:38;;;;;;;28.38;11.68;;;;;;;0.33;99.26;101114.16;5016220;28;20125;-57
2021/01/04 11:04:08;;;;;;;24.02;12.23;;;;;;;0.40;99.70;101114.06;5014739;28;20061;-55
2021/01/04 11:06:38;;;;;;;28.00;11.23;;;;;;;0.38;99.35;101118.41;4995516;28;20394;-57
2021/01/04 11:09:24;;;;;;;23.88;12.15;;;;;;;0.41;99.56;101113.22;5014476;28;20057;-56
2021/01/04 11:12:20;;;;;;;29.70;13.95;;;;;;;0.32;99.91;101105.53;4993353;28;20053;-57
2021/01/04 11:14:59;;;;;;;23.10;11.50;;;;;;;0.39;99.93;101114.09;4998724;28;20396;-59
2021/01/04 11:17:34;;;;;;;22.85;10.63;;;;;;;0.47;99.54;101110.56;5003891;28;20057;-57
2021/01/04 11:20:05;;;;;;;21.27;9.27;;;;;;;0.45;99.81;101112.31;5019595;28;20085;-58
2021/01/04 11:22:32;;;;;;;26.40;12.68;;;;;;;0.50;99.32;101115.72;4990439;28;20057;-56
2021/01/04 11:25:00;;;;;;;22.73;13.57;;;;;;;0.39;99.61;101112.34;4995521;28;20071;-58
2021/01/04 11:27:27;;;;;;;23.38;11.85;;;;;;;0.52;99.62;101115.69;5000229;28;20423;-57
2021/01/04 11:29:53;;;;;;;27.15;13.90;;;;;;;0.49;99.55;101115.72;5003448;28;20088;-59
2021/01/04 11:32:22;;;;;;;26.15;13.10;;;;;;;0.41;99.43;101112.34;5014453;28;20064;-60
2021/01/04 11:34:51;;;;;;;27.08;12.43;;;;;;;0.31;99.41;101111.56;4970026;28;20148;-56
2021/01/04 11:37:19;;;;;;;32.30;12.95;;;;;;;0.34;99.93;101114.13;5015632;28;20056;-56
2021/01/04 11:39:51;;;;;;;28.38;13.63;;;;;;;0.22;100.00;101112.50;5020344;28;20064;-56
2021/01/04 11:42:19;;;;;;;27.27;13.63;;;;;;;0.24;100.00;101109.91;5013274;28;20053;-57
2021/01/04 11:44:46;;;;;;;28.65;13.85;;;;;;;0.29;100.00;101105.56;5021662;28;20067;-59
2021/01/04 11:47:17;;;;;;;26.92;13.38;;;;;;;0.35;100.00;101102.03;5022275;28;20056;-55
2021/01/04 11:49:43;;;;;;;29.48;12.90;;;;;;;0.27;100.00;101103.84;5016388;28;20061;-57
2021/01/04 11:52:11;;;;;;;31.38;15.43;;;;;;;0.33;100.00;101099.47;5012516;28;20057;-54
2021/01/04 11:54:44;;;;;;;32.35;14.45;;;;;;;0.28;100.00;101098.66;5017396;28;20142;-57
2021/01/04 11:57:11;;;;;;;28.70;14.95;;;;;;;0.32;100.00;101099.50;5013140;28;20406;-58
2021/01/04 11:59:38;;;;;;;38.15;14.32;;;;;;;0.38;100.00;101102.88;5014223;28;20103;-58
2021/01/04 12:02:05;;;;;;;33.40;15.60;;;;;;;0.39;100.00;101099.41;5010038;28;20140;-54
2021/01/04 12:04:32;;;;;;;31.17;15.10;;;;;;;0.37;100.00;101100.31;5013759;28;20053;-58
2021/01/04 12:06:58;;;;;;;28.10;13.80;;;;;;;0.29;100.00;101102.09;5022645;23;20576;-55
2021/01/04 12:09:25;;;;;;;34.03;14.77;;;;;;;0.10;100.00;101096.22;4984574;28;20623;-57